Time;durP1;ratioP1;P1;durP2;ratioP2;P2;SDS_P1;SDS_P2;PMS_P1;PMS_P2;Temp;Humidity;BMP_temperature;BMP_pressure;BME280_temperature;BME280_humidity;BME280_pressure;Samples;Min_cycle;Max_cycle;Signal;HPM_P1;HPM_P2
2023/05/21 00:01:31;;;;;;;1.40;0.50;;;17.10;99.90;;;;;;5076386;28;20192;-89
2023/05/21 00:04:02;;;;;;;1.33;0.50;;;17.20;99.90;;;;;;5074763;28;20643;-88
2023/05/21 00:06:34;;;;;;;0.98;0.38;;;17.30;99.90;;;;;;5076122;28;20218;-87
2023/05/21 00:09:06;;;;;;;1.02;0.45;;;17.30;99.90;;;;;;5076255;28;20238;-89
2023/05/21 00:11:39;;;;;;;0.73;0.40;;;17.30;99.90;;;;;;5075747;28;20196;-88
2023/05/21 00:14:11;;;;;;;5.18;0.50;;;17.40;99.90;;;;;;5075260;28;20226;-88
2023/05/21 00:16:43;;;;;;;1.73;0.60;;;17.50;99.90;;;;;;5075591;28;20228;-88
2023/05/21 00:19:15;;;;;;;1.45;0.55;;;17.60;99.90;;;;;;5076172;28;20303;-88
2023/05/21 00:21:46;;;;;;;1.05;0.50;;;17.50;99.90;;;;;;5075606;28;20299;-87
2023/05/21 00:24:18;;;;;;;2.22;0.40;;;17.50;99.90;;;;;;5075645;28;20204;-87
2023/05/21 00:26:51;;;;;;;2.47;0.60;;;17.50;99.90;;;;;;5075099;28;20235;-88
2023/05/21 00:29:22;;;;;;;5.75;0.43;;;17.60;99.90;;;;;;5075950;28;20196;-87
2023/05/21 00:31:53;;;;;;;0.28;0.22;;;17.60;99.90;;;;;;5076077;28;20191;-87
2023/05/21 00:34:25;;;;;;;1.70;0.68;;;17.70;99.90;;;;;;5076358;28;20206;-88
2023/05/21 00:36:56;;;;;;;0.43;0.30;;;17.80;99.90;;;;;;5075508;28;20601;-87
2023/05/21 00:39:27;;;;;;;1.13;0.40;;;17.70;99.90;;;;;;5076030;28;20212;-87
2023/05/21 00:42:03;;;;;;;1.48;0.35;;;17.70;99.80;;;;;;5074169;28;20190;-88
2023/05/21 00:44:34;;;;;;;2.33;0.30;;;17.90;99.90;;;;;;5086584;28;20204;-88
2023/05/21 00:47:06;;;;;;;1.50;0.30;;;18.10;99.90;;;;;;5076337;28;20218;-88
2023/05/21 00:49:38;;;;;;;1.98;0.20;;;18.20;99.30;;;;;;5076243;28;20720;-87
2023/05/21 00:52:10;;;;;;;1.02;0.30;;;18.30;99.00;;;;;;5075523;28;20206;-87
2023/05/21 00:54:44;;;;;;;2.65;0.43;;;18.20;97.90;;;;;;5075301;28;20203;-88
2023/05/21 00:57:19;;;;;;;1.65;0.40;;;18.20;98.80;;;;;;5075390;28;20211;-87
2023/05/21 00:59:52;;;;;;;1.52;0.40;;;18.40;98.90;;;;;;5077569;28;20666;-88
2023/05/21 01:02:24;;;;;;;1.38;0.30;;;18.40;98.40;;;;;;5076744;28;20255;-88
2023/05/21 01:04:59;;;;;;;1.35;0.40;;;18.40;98.10;;;;;;5075749;28;20200;-86
2023/05/21 01:07:30;;;;;;;0.57;0.40;;;18.40;97.50;;;;;;5075573;28;20219;-88
2023/05/21 01:10:02;;;;;;;0.45;0.25;;;18.50;97.80;;;;;;5075148;28;20227;-88
2023/05/21 01:12:38;;;;;;;0.85;0.30;;;18.50;97.40;;;;;;5075237;28;20192;-87
2023/05/21 01:15:11;;;;;;;1.00;0.43;;;18.70;97.60;;;;;;5074508;28;20206;-88
2023/05/21 01:17:44;;;;;;;0.38;0.22;;;18.70;97.40;;;;;;5074783;28;20192;-88
2023/05/21 01:20:17;;;;;;;2.05;0.40;;;18.70;97.10;;;;;;5074719;28;20275;-89
2023/05/21 01:22:55;;;;;;;3.30;0.63;;;18.60;97.10;;;;;;5074571;28;20206;-86
2023/05/21 01:25:27;;;;;;;1.50;0.30;;;18.70;96.90;;;;;;5073949;28;20313;-87
2023/05/21 01:27:58;;;;;;;1.20;0.50;;;18.80;97.40;;;;;;5074039;28;20224;-88
2023/05/21 01:30:29;;;;;;;0.50;0.30;;;18.80;97.30;;;;;;5074919;28;20208;-88
2023/05/21 01:33:08;;;;;;;0.20;0.20;;;19.00;96.70;;;;;;5074645;28;20227;-88
2023/05/21 01:35:44;;;;;;;0.93;0.30;;;19.00;95.70;;;;;;5074408;28;20259;-87
2023/05/21 01:38:25;;;;;;;0.70;0.30;;;19.10;95.80;;;;;;5074534;28;20203;-88
2023/05/21 01:40:58;;;;;;;0.30;0.30;;;19.10;95.40;;;;;;5075259;28;20199;-87
2023/05/21 01:43:33;;;;;;;1.95;0.30;;;19.10;95.20;;;;;;5074202;28;20199;-86
2023/05/21 01:46:05;;;;;;;0.40;0.20;;;19.00;95.10;;;;;;5074360;28;20195;-87
2023/05/21 01:48:39;;;;;;;0.30;0.30;;;19.10;94.60;;;;;;5074513;28;20203;-87
2023/05/21 01:51:10;;;;;;;1.85;0.45;;;19.00;94.90;;;;;;5074476;28;20199;-86
2023/05/21 01:53:44;;;;;;;0.90;0.35;;;19.00;95.50;;;;;;5073565;28;20199;-85
2023/05/21 01:56:15;;;;;;;1.05;0.20;;;19.10;95.10;;;;;;5073591;28;20722;-87
2023/05/21 01:58:48;;;;;;;0.20;0.20;;;19.10;94.60;;;;;;5074489;28;20196;-87
2023/05/21 02:01:23;;;;;;;4.43;0.22;;;19.20;94.70;;;;;;5073506;28;20192;-86
2023/05/21 02:03:54;;;;;;;2.70;0.40;;;19.00;94.40;;;;;;5073697;28;20233;-86
2023/05/21 02:06:26;;;;;;;2.65;0.50;;;18.90;94.60;;;;;;5073329;28;20206;-86
2023/05/21 02:09:01;;;;;;;1.92;0.38;;;19.00;94.60;;;;;;5072576;28;20667;-87
2023/05/21 02:11:33;;;;;;;1.45;0.50;;;19.10;95.00;;;;;;5072157;28;20245;-85
2023/05/21 02:14:04;;;;;;;1.00;0.40;;;19.30;94.50;;;;;;5072805;28;20215;-84
2023/05/21 02:16:35;;;;;;;0.88;0.30;;;19.50;94.70;;;;;;5071750;28;20235;-83
2023/05/21 02:19:06;;;;;;;0.95;0.30;;;19.50;94.20;;;;;;5072029;28;20286;-84
2023/05/21 02:21:37;;;;;;;1.40;0.60;;;19.60;93.70;;;;;;5071446;28;20202;-83
2023/05/21 02:24:10;;;;;;;0.60;0.20;;;19.50;93.60;;;;;;5072365;28;20204;-84
2023/05/21 02:26:42;;;;;;;3.03;0.40;;;19.50;93.30;;;;;;5070105;28;20231;-83
2023/05/21 02:29:13;;;;;;;1.23;1.00;;;19.40;93.60;;;;;;5072117;28;20196;-84
2023/05/21 02:31:44;;;;;;;1.65;1.00;;;19.40;93.80;;;;;;5072027;28;20195;-84
2023/05/21 02:34:21;;;;;;;3.03;2.78;;;19.50;93.60;;;;;;5072381;28;20199;-85
2023/05/21 02:36:53;;;;;;;1.70;1.52;;;19.50;93.90;;;;;;5073112;28;20212;-84
2023/05/21 02:39:26;;;;;;;1.05;0.70;;;19.60;93.10;;;;;;5071625;28;20223;-83
2023/05/21 02:41:57;;;;;;;0.20;0.20;;;19.70;93.40;;;;;;5072042;28;20658;-85
2023/05/21 02:44:30;;;;;;;1.38;0.70;;;19.90;93.10;;;;;;5071583;28;20200;-83
2023/05/21 02:47:01;;;;;;;3.88;1.90;;;19.80;92.70;;;;;;5071114;28;20299;-83
2023/05/21 02:49:32;;;;;;;0.70;0.70;;;19.80;93.20;;;;;;5071671;28;20253;-83
2023/05/21 02:52:03;;;;;;;0.30;0.30;;;19.80;93.50;;;;;;5072458;28;20202;-84
2023/05/21 02:54:37;;;;;;;0.22;0.22;;;20.00;93.10;;;;;;5070916;28;20196;-84
2023/05/21 02:57:08;;;;;;;0.70;0.60;;;20.00;93.10;;;;;;5070926;28;20223;-83
2023/05/21 02:59:39;;;;;;;4.00;1.10;;;19.80;93.80;;;;;;5071939;28;20195;-85
2023/05/21 03:02:10;;;;;;;1.13;0.63;;;19.80;94.00;;;;;;5070574;28;20196;-83
2023/05/21 03:04:44;;;;;;;0.73;0.40;;;19.90;93.90;;;;;;5070434;28;20575;-84
2023/05/21 03:07:16;;;;;;;1.20;1.10;;;19.90;93.80;;;;;;5071215;28;20202;-83
2023/05/21 03:09:50;;;;;;;2.53;0.80;;;20.00;93.90;;;;;;5073793;28;20206;-84
2023/05/21 03:12:21;;;;;;;1.75;0.40;;;19.90;93.00;;;;;;5071694;28;20203;-84
2023/05/21 03:14:52;;;;;;;2.30;0.30;;;19.80;92.90;;;;;;5071332;28;20211;-83
2023/05/21 03:17:23;;;;;;;3.30;0.40;;;19.50;92.80;;;;;;5073050;28;20233;-84
2023/05/21 03:19:55;;;;;;;3.13;0.40;;;19.30;93.50;;;;;;5071142;28;20196;-83
2023/05/21 03:22:26;;;;;;;2.30;0.63;;;19.40;93.50;;;;;;5071572;28;20207;-84
2023/05/21 03:25:00;;;;;;;1.75;0.40;;;19.50;93.10;;;;;;5073052;28;20196;-83
2023/05/21 03:27:31;;;;;;;1.35;0.52;;;19.50;92.70;;;;;;5070449;28;20727;-84
2023/05/21 03:30:02;;;;;;;0.80;0.60;;;19.40;92.40;;;;;;5071667;28;20203;-84
2023/05/21 03:32:36;;;;;;;1.58;0.65;;;19.50;92.10;;;;;;5071928;28;20199;-84
2023/05/21 03:35:09;;;;;;;2.65;0.60;;;19.30;91.20;;;;;;5072285;28;20204;-84
2023/05/21 03:37:40;;;;;;;4.28;0.52;;;19.20;91.40;;;;;;5071375;28;20231;-85
2023/05/21 03:40:14;;;;;;;0.85;0.30;;;19.20;91.60;;;;;;5070638;28;20196;-85
2023/05/21 03:42:45;;;;;;;1.02;0.40;;;19.30;91.20;;;;;;5071457;28;20686;-84
2023/05/21 03:45:16;;;;;;;4.40;0.80;;;19.20;92.00;;;;;;5071117;28;20694;-84
2023/05/21 03:47:48;;;;;;;2.90;0.60;;;19.40;92.70;;;;;;5071374;28;20210;-84
2023/05/21 03:50:19;;;;;;;1.20;0.60;;;19.40;92.10;;;;;;5070969;28;20203;-84
2023/05/21 03:52:50;;;;;;;1.80;0.80;;;19.30;91.90;;;;;;5071146;28;20200;-85
2023/05/21 03:55:23;;;;;;;1.15;0.60;;;19.30;92.30;;;;;;5071401;28;20287;-84
2023/05/21 03:57:54;;;;;;;3.78;0.60;;;19.10;91.80;;;;;;5072513;28;20609;-84
2023/05/21 04:00:26;;;;;;;2.60;0.20;;;19.00;92.20;;;;;;5072676;28;20200;-84
2023/05/21 04:02:57;;;;;;;4.30;0.40;;;18.90;92.10;;;;;;5070722;28;20206;-84
2023/05/21 04:05:32;;;;;;;0.40;0.40;;;18.90;92.80;;;;;;5071723;28;20200;-84
2023/05/21 04:08:03;;;;;;;0.35;0.30;;;19.00;92.60;;;;;;5071224;28;20199;-85
2023/05/21 04:10:36;;;;;;;1.48;0.50;;;18.90;92.40;;;;;;5072075;28;20199;-84
2023/05/21 04:13:08;;;;;;;0.10;0.10;;;18.80;93.30;;;;;;5071927;28;20220;-85
2023/05/21 04:15:39;;;;;;;0.15;0.15;;;18.90;93.80;;;;;;5071627;28;20739;-85
2023/05/21 04:18:10;;;;;;;0.90;0.20;;;18.80;93.90;;;;;;5074610;28;20228;-85
2023/05/21 04:20:41;;;;;;;0.90;0.20;;;18.80;93.80;;;;;;5075727;28;20199;-83
2023/05/21 04:23:12;;;;;;;0.45;0.25;;;18.80;94.40;;;;;;5075287;28;20200;-84
2023/05/21 04:25:49;;;;;;;0.30;0.30;;;18.80;94.80;;;;;;5073923;28;20206;-84
2023/05/21 04:28:20;;;;;;;0.20;0.20;;;18.90;94.50;;;;;;5074112;28;20310;-87
2023/05/21 04:30:52;;;;;;;1.77;0.30;;;18.90;94.40;;;;;;5075159;28;20196;-84
2023/05/21 04:33:23;;;;;;;1.23;0.40;;;18.80;94.00;;;;;;5074426;28;20563;-85
2023/05/21 04:35:55;;;;;;;0.20;0.20;;;18.80;93.80;;;;;;5077185;28;20196;-81
2023/05/21 04:38:26;;;;;;;0.28;0.28;;;18.70;94.20;;;;;;5074546;28;20271;-82
2023/05/21 04:41:02;;;;;;;0.73;0.40;;;18.80;94.00;;;;;;5075588;28;20194;-85
2023/05/21 04:43:37;;;;;;;0.32;0.13;;;18.90;94.40;;;;;;5076530;28;20226;-86
2023/05/21 04:46:09;;;;;;;1.75;0.90;;;18.90;94.00;;;;;;5076660;28;20266;-88
2023/05/21 04:48:41;;;;;;;0.70;0.35;;;18.70;94.00;;;;;;5082035;28;20200;-87
2023/05/21 04:51:12;;;;;;;0.43;0.40;;;18.60;94.10;;;;;;5077668;28;20273;-87
2023/05/21 04:53:43;;;;;;;0.50;0.50;;;18.60;94.20;;;;;;5077052;28;20652;-86
2023/05/21 04:56:16;;;;;;;0.47;0.40;;;18.70;94.70;;;;;;5074596;28;20199;-87
2023/05/21 04:58:49;;;;;;;0.35;0.20;;;18.70;94.80;;;;;;5076782;28;20199;-87
2023/05/21 05:01:21;;;;;;;1.38;0.25;;;18.50;94.70;;;;;;5075085;28;20602;-88
2023/05/21 05:03:56;;;;;;;0.95;0.30;;;18.60;94.50;;;;;;5075406;28;20286;-87
2023/05/21 05:06:27;;;;;;;0.30;0.20;;;18.50;94.70;;;;;;5073590;28;20225;-84
2023/05/21 05:08:58;;;;;;;2.83;0.82;;;18.40;95.10;;;;;;5073497;28;20281;-85
2023/05/21 05:11:33;;;;;;;0.35;0.20;;;18.30;95.20;;;;;;5074800;28;20196;-87
2023/05/21 05:14:04;;;;;;;1.88;0.40;;;18.30;95.80;;;;;;5074830;28;20803;-85
2023/05/21 05:16:37;;;;;;;1.08;0.20;;;18.20;95.60;;;;;;5081090;28;20215;-86
2023/05/21 05:19:09;;;;;;;0.30;0.30;;;18.20;96.10;;;;;;5086376;28;20681;-87
2023/05/21 05:21:44;;;;;;;0.80;0.30;;;18.30;96.40;;;;;;5084202;28;20198;-86
2023/05/21 05:24:20;;;;;;;0.20;0.20;;;18.40;95.70;;;;;;5093824;28;20194;-83
2023/05/21 05:27:02;;;;;;;0.90;0.40;;;18.30;95.40;;;;;;5092383;28;20233;-84
2023/05/21 05:29:34;;;;;;;0.57;0.20;;;18.30;96.30;;;;;;5084308;28;20206;-82
2023/05/21 05:32:05;;;;;;;1.60;0.20;;;18.50;96.10;;;;;;5078393;28;20651;-87
2023/05/21 05:34:36;;;;;;;0.25;0.20;;;18.40;96.20;;;;;;5076456;28;20196;-86
2023/05/21 05:37:09;;;;;;;0.40;0.30;;;18.50;96.40;;;;;;5076849;28;20219;-85
2023/05/21 05:39:44;;;;;;;0.88;0.30;;;18.60;96.40;;;;;;5077793;28;20185;-86
2023/05/21 05:42:17;;;;;;;1.92;0.35;;;18.60;96.30;;;;;;5078765;28;20207;-86
2023/05/21 05:44:49;;;;;;;0.63;0.30;;;18.50;96.30;;;;;;5079822;28;20200;-85
2023/05/21 05:47:20;;;;;;;1.20;0.20;;;18.50;96.40;;;;;;5078189;28;20208;-85
2023/05/21 05:49:52;;;;;;;1.17;0.55;;;18.60;96.10;;;;;;5080533;28;20191;-85
2023/05/21 05:52:25;;;;;;;1.63;0.20;;;18.70;96.00;;;;;;5079348;28;20207;-85
2023/05/21 05:54:57;;;;;;;0.70;0.40;;;18.70;95.10;;;;;;5072903;28;20200;-85
2023/05/21 05:57:30;;;;;;;0.55;0.20;;;18.60;94.90;;;;;;5072622;28;20219;-85
2023/05/21 06:00:01;;;;;;;0.30;0.30;;;18.50;94.70;;;;;;5072510;28;20280;-85
2023/05/21 06:02:36;;;;;;;0.43;0.30;;;18.60;94.90;;;;;;5072634;28;20655;-86
2023/05/21 06:05:08;;;;;;;4.03;0.47;;;18.70;95.10;;;;;;5073232;28;20192;-84
2023/05/21 06:07:40;;;;;;;1.00;0.40;;;18.80;95.40;;;;;;5074158;28;20217;-85
2023/05/21 06:10:12;;;;;;;0.40;0.30;;;18.90;95.00;;;;;;5072307;28;20187;-85
2023/05/21 06:12:45;;;;;;;0.15;0.15;;;18.70;95.00;;;;;;5072372;28;20257;-86
2023/05/21 06:15:18;;;;;;;0.65;0.30;;;18.70;94.80;;;;;;5072217;28;20196;-85
2023/05/21 06:17:49;;;;;;;0.22;0.20;;;18.60;94.70;;;;;;5071777;28;20231;-86
2023/05/21 06:20:20;;;;;;;0.38;0.30;;;18.50;95.10;;;;;;5071782;28;20202;-85
2023/05/21 06:22:51;;;;;;;1.33;0.30;;;18.50;95.40;;;;;;5071830;28;20195;-85
2023/05/21 06:25:24;;;;;;;1.02;0.35;;;18.40;95.20;;;;;;5071937;28;20211;-85
2023/05/21 06:27:58;;;;;;;1.70;0.20;;;18.20;95.30;;;;;;5071951;28;20590;-86
2023/05/21 06:30:29;;;;;;;0.30;0.30;;;18.20;95.40;;;;;;5071663;28;20196;-84
2023/05/21 06:33:00;;;;;;;0.57;0.30;;;18.10;95.70;;;;;;5071534;28;20566;-85
2023/05/21 06:35:35;;;;;;;0.95;0.50;;;18.00;96.40;;;;;;5071379;28;20192;-84
2023/05/21 06:38:06;;;;;;;1.20;0.50;;;17.90;96.70;;;;;;5070884;28;20230;-85
2023/05/21 06:40:38;;;;;;;2.38;0.73;;;17.80;96.10;;;;;;5071371;28;20200;-85
2023/05/21 06:43:11;;;;;;;1.55;0.65;;;17.70;96.70;;;;;;5071307;28;20218;-84
2023/05/21 06:45:42;;;;;;;0.77;0.50;;;17.80;96.50;;;;;;5071491;28;20196;-87
2023/05/21 06:48:15;;;;;;;0.98;0.43;;;17.60;96.90;;;;;;5072086;28;20192;-88
2023/05/21 06:50:47;;;;;;;1.35;0.65;;;17.50;97.00;;;;;;5071731;28;20195;-86
2023/05/21 06:53:18;;;;;;;1.65;0.80;;;17.60;96.90;;;;;;5071746;28;20206;-87
2023/05/21 06:55:52;;;;;;;0.63;0.50;;;17.50;97.30;;;;;;5071886;28;20204;-86
2023/05/21 06:58:29;;;;;;;0.95;0.50;;;17.40;97.00;;;;;;5072835;28;20222;-86
2023/05/21 07:01:01;;;;;;;1.45;0.60;;;17.40;97.50;;;;;;5072301;28;20203;-86
2023/05/21 07:03:32;;;;;;;3.63;1.33;;;17.30;97.20;;;;;;5072239;28;20260;-88
2023/05/21 07:06:03;;;;;;;1.17;0.50;;;17.20;97.70;;;;;;5076459;28;20702;-87
2023/05/21 07:08:34;;;;;;;1.13;0.63;;;17.30;97.80;;;;;;5071923;28;20209;-87
2023/05/21 07:11:05;;;;;;;3.63;0.60;;;17.30;97.90;;;;;;5071720;28;20192;-87
2023/05/21 07:13:40;;;;;;;1.80;1.00;;;17.40;97.60;;;;;;5071491;28;20301;-89
2023/05/21 07:16:11;;;;;;;2.17;1.00;;;17.30;97.70;;;;;;5071809;28;20203;-87
2023/05/21 07:18:42;;;;;;;4.35;2.28;;;17.30;97.60;;;;;;5071634;28;20216;-89
2023/05/21 07:21:13;;;;;;;1.58;0.93;;;17.30;97.80;;;;;;5071610;28;20651;-88
2023/05/21 07:23:45;;;;;;;1.77;1.00;;;17.20;98.10;;;;;;5073007;28;20181;-86
2023/05/21 07:26:16;;;;;;;1.85;1.13;;;17.20;98.40;;;;;;5074147;28;20196;-85
2023/05/21 07:28:50;;;;;;;1.88;1.13;;;17.30;98.20;;;;;;5031125;28;20209;-86
2023/05/21 07:31:21;;;;;;;2.03;1.08;;;17.30;97.90;;;;;;5032995;28;20196;-85
2023/05/21 07:33:53;;;;;;;2.50;1.08;;;17.40;98.00;;;;;;5033391;28;20208;-85
2023/05/21 07:36:24;;;;;;;0.77;0.50;;;17.40;98.30;;;;;;5032785;28;20227;-85
2023/05/21 07:38:55;;;;;;;1.42;0.65;;;17.30;98.20;;;;;;5033195;28;20220;-84
2023/05/21 07:41:28;;;;;;;1.20;0.93;;;17.30;98.30;;;;;;5033293;28;20204;-84
2023/05/21 07:44:02;;;;;;;1.60;1.33;;;17.30;98.40;;;;;;5032461;28;20201;-86
2023/05/21 07:46:33;;;;;;;2.78;1.27;;;17.30;98.40;;;;;;5012986;28;20209;-82
2023/05/21 07:49:04;;;;;;;5.10;1.95;;;17.40;98.20;;;;;;5011857;28;20604;-84
2023/05/21 07:51:35;;;;;;;2.38;1.58;;;17.40;98.30;;;;;;5013435;28;20194;-84
2023/05/21 07:54:06;;;;;;;6.55;3.17;;;17.50;98.20;;;;;;5015627;28;20194;-83
2023/05/21 07:56:37;;;;;;;3.40;2.30;;;17.40;98.20;;;;;;5015884;28;20216;-83
2023/05/21 07:59:10;;;;;;;4.20;1.70;;;17.50;98.60;;;;;;5015543;28;20226;-84
2023/05/21 08:01:42;;;;;;;2.38;1.60;;;17.50;98.30;;;;;;5021235;28;20201;-83
2023/05/21 08:04:13;;;;;;;1.75;1.00;;;17.50;99.00;;;;;;5033978;28;20197;-83
2023/05/21 08:06:45;;;;;;;2.03;1.10;;;17.50;98.50;;;;;;5034946;28;20201;-84
2023/05/21 08:09:16;;;;;;;1.92;1.05;;;17.50;98.50;;;;;;5034007;28;20193;-84
2023/05/21 08:11:49;;;;;;;4.03;2.00;;;17.40;98.80;;;;;;5034485;28;20213;-85
2023/05/21 08:14:22;;;;;;;3.47;1.20;;;17.40;99.20;;;;;;5034087;28;20224;-85
2023/05/21 08:16:53;;;;;;;3.50;1.88;;;17.30;99.70;;;;;;5034259;28;20233;-85
2023/05/21 08:19:24;;;;;;;2.05;1.38;;;17.30;99.70;;;;;;5033760;28;20265;-84
2023/05/21 08:21:55;;;;;;;3.13;1.30;;;17.40;99.70;;;;;;5034403;28;20197;-85
2023/05/21 08:24:27;;;;;;;2.28;1.80;;;17.30;99.80;;;;;;5034290;28;20664;-83
2023/05/21 08:26:58;;;;;;;2.83;1.85;;;17.30;99.90;;;;;;5044243;28;20228;-88
2023/05/21 08:29:31;;;;;;;10.95;4.55;;;17.30;99.90;;;;;;5074272;28;20261;-84
2023/05/21 08:32:03;;;;;;;4.93;2.97;;;17.30;99.90;;;;;;5071886;28;20227;-84
2023/05/21 08:34:34;;;;;;;8.40;3.22;;;17.20;99.90;;;;;;5073696;28;20239;-84
2023/05/21 08:37:05;;;;;;;3.97;2.60;;;17.10;99.90;;;;;;5073319;28;20203;-85
2023/05/21 08:39:36;;;;;;;5.03;2.45;;;17.10;99.90;;;;;;5074031;28;20196;-85
2023/05/21 08:42:17;;;;;;;3.53;1.90;;;17.10;99.90;;;;;;5075358;28;20188;-85
2023/05/21 08:44:53;;;;;;;3.78;2.00;;;17.10;99.90;;;;;;5074725;28;20269;-85
2023/05/21 08:47:27;;;;;;;2.20;1.80;;;17.00;99.90;;;;;;5074995;28;20257;-84
2023/05/21 08:50:00;;;;;;;1.80;1.48;;;17.00;99.90;;;;;;5074459;28;20211;-84
2023/05/21 08:52:32;;;;;;;2.30;1.73;;;16.90;99.90;;;;;;5074269;28;20670;-84
2023/05/21 08:55:03;;;;;;;3.05;1.90;;;16.90;99.90;;;;;;5073482;28;20196;-85
2023/05/21 08:57:34;;;;;;;3.17;1.77;;;16.90;99.90;;;;;;5073550;28;20591;-86
2023/05/21 09:00:09;;;;;;;2.60;1.85;;;16.70;99.90;;;;;;5074247;28;20242;-84
2023/05/21 09:02:42;;;;;;;2.25;1.77;;;16.70;99.90;;;;;;5072109;28;20199;-85
2023/05/21 09:05:17;;;;;;;3.13;2.28;;;16.60;99.90;;;;;;5074253;28;20682;-84
2023/05/21 09:07:57;;;;;;;4.85;2.70;;;16.60;99.90;;;;;;5074403;28;20203;-84
2023/05/21 09:10:33;;;;;;;4.93;2.53;;;16.60;99.90;;;;;;5073232;28;20206;-84
2023/05/21 09:13:06;;;;;;;4.18;2.30;;;16.60;99.90;;;;;;5073887;28;20244;-86
2023/05/21 09:15:40;;;;;;;7.90;3.13;;;16.60;99.90;;;;;;5072609;28;20232;-83
2023/05/21 09:18:13;;;;;;;4.68;2.00;;;16.50;99.90;;;;;;5072445;28;20226;-85
2023/05/21 09:20:45;;;;;;;4.40;2.05;;;16.50;99.90;;;;;;5073438;28;20650;-87
2023/05/21 09:23:22;;;;;;;2.97;2.17;;;16.50;99.90;;;;;;5072739;28;20265;-84
2023/05/21 09:25:53;;;;;;;4.28;1.77;;;16.50;99.90;;;;;;5072321;28;20199;-84
2023/05/21 09:28:24;;;;;;;2.95;1.63;;;16.50;99.90;;;;;;5071899;28;20737;-84
2023/05/21 09:30:57;;;;;;;1.95;1.40;;;16.50;99.90;;;;;;5072652;28;20192;-86
2023/05/21 09:33:30;;;;;;;4.28;1.92;;;16.50;99.90;;;;;;5072905;28;20284;-86
2023/05/21 09:36:01;;;;;;;2.88;1.83;;;16.40;99.90;;;;;;5073413;28;20600;-85
2023/05/21 09:38:35;;;;;;;6.70;2.90;;;16.40;99.90;;;;;;5073781;28;20226;-84
2023/05/21 09:41:09;;;;;;;4.93;2.20;;;16.40;99.90;;;;;;5073674;28;20206;-86
2023/05/21 09:43:43;;;;;;;2.17;1.45;;;16.40;99.90;;;;;;5073095;28;20598;-86
2023/05/21 09:46:19;;;;;;;3.38;2.03;;;16.40;99.90;;;;;;5073362;28;20215;-87
2023/05/21 09:48:50;;;;;;;4.72;2.83;;;16.40;99.90;;;;;;5073836;28;20599;-87
2023/05/21 09:51:22;;;;;;;15.05;6.85;;;16.40;99.90;;;;;;5072634;28;20200;-87
2023/05/21 09:53:56;;;;;;;10.73;5.43;;;16.30;99.90;;;;;;5072129;28;20204;-86
2023/05/21 09:56:30;;;;;;;6.15;3.10;;;16.30;99.90;;;;;;5072940;28;20192;-86
2023/05/21 09:59:03;;;;;;;4.30;2.83;;;16.30;99.90;;;;;;5072958;28;20305;-86
2023/05/21 10:01:37;;;;;;;7.05;3.17;;;16.30;99.90;;;;;;5082384;28;20200;-90
2023/05/21 10:04:11;;;;;;;3.47;2.60;;;16.30;99.90;;;;;;5072528;28;20206;-85
2023/05/21 10:06:46;;;;;;;3.47;2.35;;;16.30;99.90;;;;;;5072485;28;20200;-87
2023/05/21 10:09:21;;;;;;;6.97;3.42;;;16.20;99.90;;;;;;5072577;28;20204;-86
2023/05/21 10:11:54;;;;;;;3.63;2.33;;;16.20;99.90;;;;;;5072150;28;20228;-86
2023/05/21 10:14:30;;;;;;;4.05;2.30;;;16.20;99.90;;;;;;5071861;28;20709;-86
2023/05/21 10:17:06;;;;;;;2.47;2.13;;;16.20;99.90;;;;;;5073137;28;20282;-88
2023/05/21 10:19:38;;;;;;;2.50;1.95;;;16.20;99.90;;;;;;5052582;28;20267;-88
2023/05/21 10:22:11;;;;;;;3.38;2.30;;;16.20;99.90;;;;;;5053652;28;20193;-88
2023/05/21 10:24:44;;;;;;;3.08;1.60;;;16.20;99.90;;;;;;5061485;28;20589;-88
2023/05/21 10:27:17;;;;;;;2.78;1.48;;;16.10;99.90;;;;;;5053348;28;20591;-87
2023/05/21 10:29:49;;;;;;;1.70;1.45;;;16.10;99.90;;;;;;5058713;28;20687;-88
2023/05/21 10:32:25;;;;;;;3.55;1.60;;;16.10;99.90;;;;;;5056193;28;20208;-88
2023/05/21 10:34:58;;;;;;;2.10;1.40;;;16.10;99.90;;;;;;5065665;28;20294;-86
2023/05/21 10:37:31;;;;;;;3.40;1.52;;;16.00;99.90;;;;;;5078934;28;20211;-85
2023/05/21 10:40:05;;;;;;;1.40;1.13;;;15.90;99.90;;;;;;5081773;28;20222;-88
2023/05/21 10:43:07;;;;;;;2.63;1.23;;;15.90;99.90;;;;;;5076880;28;20265;-86
2023/05/21 10:45:53;;;;;;;1.85;1.15;;;15.90;99.90;;;;;;5066314;28;20290;-86
2023/05/21 10:48:41;;;;;;;1.90;0.98;;;15.90;99.90;;;;;;5087443;28;20200;-86
2023/05/21 10:51:25;;;;;;;1.73;0.90;;;15.90;99.90;;;;;;5085510;28;20200;-85
2023/05/21 10:54:29;;;;;;;1.42;0.80;;;15.90;99.90;;;;;;5084091;28;20203;-85
2023/05/21 10:57:11;;;;;;;1.80;0.70;;;15.90;99.90;;;;;;5074071;28;20199;-85
2023/05/21 10:59:47;;;;;;;2.47;0.98;;;15.80;99.90;;;;;;5075302;28;20255;-87
2023/05/21 11:02:21;;;;;;;1.88;1.00;;;15.80;99.90;;;;;;5075861;28;20234;-87
2023/05/21 11:05:02;;;;;;;2.60;0.90;;;15.70;99.90;;;;;;5074982;28;20206;-88
2023/05/21 11:07:55;;;;;;;2.40;0.90;;;15.70;99.90;;;;;;5078304;28;20187;-86
2023/05/21 11:10:40;;;;;;;1.65;1.00;;;15.80;99.90;;;;;;5076065;28;20625;-88
2023/05/21 11:13:18;;;;;;;2.00;0.70;;;15.60;99.90;;;;;;5082403;28;20216;-91
2023/05/21 11:16:11;;;;;;;1.40;0.75;;;15.60;99.90;;;;;;5086194;28;20658;-90
2023/05/21 11:19:04;;;;;;;1.30;0.82;;;15.60;99.90;;;;;;5083392;28;20216;-89
2023/05/21 11:21:56;;;;;;;2.60;1.00;;;15.70;99.90;;;;;;5082991;28;20196;-87
2023/05/21 11:24:30;;;;;;;0.93;0.70;;;15.50;99.90;;;;;;5078583;28;20204;-84
2023/05/21 11:27:07;;;;;;;1.88;0.65;;;15.60;99.90;;;;;;5082240;28;20238;-91
2023/05/21 11:29:57;;;;;;;1.92;0.80;;;15.60;99.90;;;;;;5084196;28;20263;-89
2023/05/21 11:32:29;;;;;;;1.48;0.80;;;15.60;99.90;;;;;;5087050;28;20215;-88
2023/05/21 11:35:08;;;;;;;0.90;0.60;;;15.60;99.90;;;;;;5075441;28;20203;-90
2023/05/21 11:37:44;;;;;;;0.85;0.50;;;15.60;99.90;;;;;;5064209;28;20271;-87
2023/05/21 11:40:32;;;;;;;1.45;0.60;;;15.60;99.90;;;;;;5074559;28;20223;-88
2023/05/21 11:43:05;;;;;;;1.33;0.60;;;15.60;99.90;;;;;;5077645;28;20211;-88
2023/05/21 11:48:31;;;;;;;1.38;0.60;;;15.60;99.90;;;;;;5090468;28;20200;-87
2023/05/21 11:51:03;;;;;;;1.15;0.60;;;15.60;99.90;;;;;;5090897;28;20214;-88
2023/05/21 11:53:38;;;;;;;2.15;0.75;;;15.70;99.90;;;;;;5080272;28;20287;-86
2023/05/21 11:56:11;;;;;;;0.98;0.65;;;15.70;99.90;;;;;;5078621;28;20191;-89
2023/05/21 11:58:47;;;;;;;1.90;0.70;;;15.70;99.90;;;;;;5084284;28;20220;-86
2023/05/21 12:01:25;;;;;;;1.25;0.70;;;15.60;99.90;;;;;;5080224;28;20233;-87
2023/05/21 12:06:44;;;;;;;1.67;0.50;;;15.60;99.90;;;;;;5084831;28;20196;-88
2023/05/21 12:09:17;;;;;;;1.15;0.50;;;15.50;99.90;;;;;;5083127;28;20286;-74
2023/05/21 12:11:53;;;;;;;1.85;0.40;;;15.40;99.90;;;;;;5081398;28;20196;-87
2023/05/21 12:14:28;;;;;;;1.45;0.43;;;15.60;99.90;;;;;;5080532;28;20234;-90
2023/05/21 12:17:04;;;;;;;1.40;0.47;;;15.50;99.90;;;;;;5081144;28;20611;-85
2023/05/21 12:19:43;;;;;;;1.58;0.50;;;15.50;99.90;;;;;;5081211;28;20595;-89
2023/05/21 12:22:20;;;;;;;2.25;0.60;;;15.60;99.90;;;;;;5084461;28;20287;-90
2023/05/21 12:25:01;;;;;;;1.83;0.65;;;15.50;99.90;;;;;;5084370;28;20195;-89
2023/05/21 12:27:43;;;;;;;1.13;0.50;;;15.50;99.90;;;;;;5083713;28;20293;-91
2023/05/21 12:30:18;;;;;;;2.15;0.43;;;15.50;99.90;;;;;;5082088;28;20208;-90
2023/05/21 12:32:51;;;;;;;1.73;0.70;;;15.60;99.90;;;;;;5081723;28;20203;-88
2023/05/21 12:35:28;;;;;;;1.42;0.50;;;15.50;99.90;;;;;;5082019;28;20271;-90
2023/05/21 12:38:04;;;;;;;1.38;0.57;;;15.40;99.90;;;;;;5076204;28;20204;-90
2023/05/21 12:40:55;;;;;;;1.88;0.60;;;15.50;99.90;;;;;;5079821;28;20227;-88
2023/05/21 12:43:36;;;;;;;1.15;0.70;;;15.40;99.90;;;;;;5082751;28;20198;-89
2023/05/21 12:46:10;;;;;;;0.98;0.60;;;15.40;99.90;;;;;;5082906;28;20195;-91
2023/05/21 12:48:42;;;;;;;1.83;0.77;;;15.30;99.90;;;;;;5081465;28;20267;-90
2023/05/21 12:51:14;;;;;;;1.20;0.50;;;15.30;99.90;;;;;;5081862;28;20195;-90
2023/05/21 12:53:48;;;;;;;2.05;1.05;;;15.10;99.90;;;;;;5080011;28;20206;-90
2023/05/21 12:56:27;;;;;;;0.95;0.70;;;15.10;99.90;;;;;;5079933;28;20558;-90
2023/05/21 12:59:07;;;;;;;1.33;0.68;;;15.10;99.90;;;;;;5079645;28;20648;-88
2023/05/21 13:01:39;;;;;;;1.27;0.60;;;15.10;99.90;;;;;;5078659;28;20208;-91
2023/05/21 13:04:10;;;;;;;3.53;0.70;;;14.90;99.90;;;;;;5080110;28;20199;-92
2023/05/21 13:06:51;;;;;;;1.63;0.63;;;15.00;99.90;;;;;;5079175;28;20655;-90
2023/05/21 13:09:23;;;;;;;0.85;0.60;;;15.00;99.90;;;;;;5077347;28;20204;-89
2023/05/21 13:11:57;;;;;;;1.00;0.75;;;15.10;99.90;;;;;;5075574;28;20574;-89
2023/05/21 13:14:28;;;;;;;1.27;0.70;;;15.00;99.90;;;;;;5075697;28;20223;-88
2023/05/21 13:16:59;;;;;;;0.80;0.73;;;14.90;99.90;;;;;;5076401;28;20191;-88
2023/05/21 13:19:30;;;;;;;1.10;0.85;;;14.80;99.90;;;;;;5075804;28;20277;-89
2023/05/21 13:22:02;;;;;;;2.17;1.00;;;14.90;99.90;;;;;;5078207;28;20226;-88
2023/05/21 13:24:33;;;;;;;1.33;0.85;;;14.90;99.90;;;;;;5083117;28;20208;-88